createdAt,value
2019-01-10T00:00:19.930Z,0
2019-01-10T00:01:19.923Z,0
2019-01-10T00:02:19.906Z,0
2019-01-10T00:03:19.884Z,0
2019-01-10T00:04:19.878Z,0
2019-01-10T00:05:19.926Z,0
2019-01-10T00:06:19.932Z,0
2019-01-10T00:07:19.827Z,0
2019-01-10T00:08:19.809Z,0
2019-01-10T00:09:19.797Z,0
2019-01-10T00:10:21.169Z,0
2019-01-10T00:11:19.768Z,0
2019-01-10T00:12:19.752Z,0
2019-01-10T00:13:19.835Z,0
2019-01-10T00:14:19.722Z,0
2019-01-10T00:15:19.747Z,0
2019-01-10T00:16:19.688Z,0
2019-01-10T00:17:19.679Z,0
2019-01-10T00:18:19.418Z,0
2019-01-10T00:19:19.648Z,0
2019-01-10T00:20:19.636Z,0
2019-01-10T00:21:19.617Z,0
2019-01-10T00:22:19.607Z,0
2019-01-10T00:23:19.587Z,0
2019-01-10T00:24:19.569Z,0
2019-01-10T00:25:19.570Z,0
2019-01-10T00:26:19.540Z,0
2019-01-10T00:27:19.526Z,0
2019-01-10T00:28:19.508Z,0
2019-01-10T00:29:19.492Z,0
2019-01-10T00:30:19.480Z,0
2019-01-10T00:31:19.459Z,0
2019-01-10T00:32:19.490Z,0
2019-01-10T00:33:19.436Z,0
2019-01-10T00:34:19.421Z,0
2019-01-10T00:35:19.400Z,0
2019-01-10T00:36:19.386Z,0
2019-01-10T00:37:19.378Z,0
2019-01-10T00:38:19.365Z,0
2019-01-10T00:39:19.355Z,0
2019-01-10T00:40:19.342Z,0
2019-01-10T00:41:19.321Z,0
2019-01-10T00:42:19.307Z,0
2019-01-10T00:43:19.284Z,0
2019-01-10T00:44:19.262Z,0
2019-01-10T00:45:19.258Z,0
2019-01-10T00:46:19.236Z,0
2019-01-10T00:47:19.220Z,0
2019-01-10T00:48:19.210Z,0
2019-01-10T00:49:19.197Z,0
2019-01-10T00:50:19.169Z,0
2019-01-10T00:51:19.152Z,0
2019-01-10T00:52:19.142Z,0
2019-01-10T00:53:19.135Z,0
2019-01-10T00:54:19.112Z,0
2019-01-10T00:55:19.150Z,0
2019-01-10T00:56:19.081Z,0
2019-01-10T00:57:19.070Z,0
2019-01-10T00:58:19.045Z,0
2019-01-10T00:59:19.032Z,0
2019-01-10T01:00:19.024Z,0
2019-01-10T01:01:18.999Z,0
2019-01-10T01:02:18.982Z,0
2019-01-10T01:03:18.979Z,0
2019-01-10T01:04:18.955Z,0
2019-01-10T01:05:18.945Z,0
2019-01-10T01:06:20.540Z,0
2019-01-10T01:07:18.906Z,0
2019-01-10T01:08:18.903Z,0
2019-01-10T01:09:18.890Z,0
2019-01-10T01:10:18.631Z,0
2019-01-10T01:11:18.858Z,0
2019-01-10T01:12:18.837Z,0
2019-01-10T01:13:18.811Z,0
2019-01-10T01:14:18.800Z,0
2019-01-10T01:15:18.782Z,0
2019-01-10T01:16:18.762Z,0
2019-01-10T01:17:20.633Z,0
2019-01-10T01:18:18.738Z,0
2019-01-10T01:19:18.721Z,0
2019-01-10T01:20:18.707Z,0
2019-01-10T01:21:18.690Z,0
2019-01-10T01:22:18.678Z,0
2019-01-10T01:23:18.660Z,0
2019-01-10T01:24:18.984Z,0
2019-01-10T01:25:18.678Z,0
2019-01-10T01:26:18.623Z,0
2019-01-10T01:27:18.605Z,0
2019-01-10T01:28:18.582Z,0
2019-01-10T01:29:20.832Z,0
2019-01-10T01:30:18.547Z,0
2019-01-10T01:31:18.529Z,0
2019-01-10T01:32:18.516Z,0
2019-01-10T01:33:18.517Z,0
2019-01-10T01:34:18.489Z,0
2019-01-10T01:35:18.497Z,0
2019-01-10T01:36:18.459Z,0
2019-01-10T01:37:18.476Z,0
2019-01-10T01:38:18.425Z,0
2019-01-10T01:39:18.408Z,0
2019-01-10T01:40:18.459Z,0
2019-01-10T01:41:18.379Z,0
2019-01-10T01:42:18.364Z,0
2019-01-10T01:43:18.367Z,0
2019-01-10T01:44:18.333Z,0
2019-01-10T01:45:18.311Z,0
2019-01-10T01:46:18.302Z,0
2019-01-10T01:47:18.284Z,0
2019-01-10T01:48:18.291Z,0
2019-01-10T01:49:18.253Z,0
2019-01-10T01:50:18.233Z,0
2019-01-10T01:51:18.219Z,0
2019-01-10T01:52:18.301Z,0
2019-01-10T01:53:18.299Z,0
2019-01-10T01:54:18.172Z,0
2019-01-10T01:55:18.174Z,0
2019-01-10T01:56:18.144Z,0
2019-01-10T01:57:18.135Z,0
2019-01-10T01:58:18.113Z,0
2019-01-10T01:59:18.094Z,0
2019-01-10T02:00:18.079Z,0
2019-01-10T02:01:18.076Z,0
2019-01-10T02:02:18.046Z,0
2019-01-10T02:03:18.041Z,0
2019-01-10T02:04:18.018Z,0
2019-01-10T02:05:18.002Z,0
2019-01-10T02:06:17.988Z,0
2019-01-10T02:07:17.970Z,0
2019-01-10T02:08:17.954Z,0
2019-01-10T02:09:17.939Z,0
2019-01-10T02:10:17.920Z,0
2019-01-10T02:11:17.925Z,0
2019-01-10T02:12:17.894Z,0
2019-01-10T02:13:26.253Z,0
2019-01-10T02:14:17.864Z,0
2019-01-10T02:15:19.136Z,0
2019-01-10T02:16:17.832Z,0
2019-01-10T02:17:17.817Z,0
2019-01-10T02:18:17.804Z,0
2019-01-10T02:19:17.789Z,0
2019-01-10T02:20:17.812Z,0
2019-01-10T02:21:17.757Z,0
2019-01-10T02:22:17.732Z,0
2019-01-10T02:23:17.721Z,0
2019-01-10T02:24:17.711Z,0
2019-01-10T02:25:17.753Z,0
2019-01-10T02:26:17.681Z,0
2019-01-10T02:27:17.658Z,0
2019-01-10T02:28:17.643Z,0
2019-01-10T02:29:17.622Z,0
2019-01-10T02:30:17.623Z,0
2019-01-10T02:31:17.610Z,0
2019-01-10T02:32:17.578Z,0
2019-01-10T02:33:17.568Z,0
2019-01-10T02:34:17.551Z,0
2019-01-10T02:35:17.539Z,0
2019-01-10T02:36:17.523Z,0
2019-01-10T02:37:17.607Z,0
2019-01-10T02:38:17.493Z,0
2019-01-10T02:39:17.473Z,0
2019-01-10T02:40:17.212Z,0
2019-01-10T02:41:17.445Z,0
2019-01-10T02:42:17.431Z,0
2019-01-10T02:43:26.107Z,0
2019-01-10T02:44:17.419Z,0
2019-01-10T02:45:17.377Z,0
2019-01-10T02:46:17.362Z,0
2019-01-10T02:47:17.338Z,0
2019-01-10T02:48:19.481Z,0
2019-01-10T02:49:17.319Z,0
2019-01-10T02:50:17.307Z,0
2019-01-10T02:51:17.291Z,0
2019-01-10T02:52:17.279Z,0
2019-01-10T02:53:17.250Z,0
2019-01-10T02:54:17.243Z,0
2019-01-10T02:55:17.227Z,0
2019-01-10T02:56:16.968Z,0
2019-01-10T02:57:16.956Z,0
2019-01-10T02:58:17.303Z,0
2019-01-10T02:59:17.159Z,0
2019-01-10T03:00:17.155Z,0
2019-01-10T03:01:17.121Z,0
2019-01-10T03:02:17.125Z,0
2019-01-10T03:03:17.101Z,0
2019-01-10T03:04:17.082Z,0
2019-01-10T03:05:17.066Z,0
2019-01-10T03:06:17.044Z,0
2019-01-10T03:07:17.036Z,0
2019-01-10T03:08:17.022Z,0
2019-01-10T03:09:17.001Z,0
2019-01-10T03:10:17.001Z,0
2019-01-10T03:11:16.972Z,0
2019-01-10T03:12:16.952Z,0
2019-01-10T03:13:16.939Z,0
2019-01-10T03:14:16.918Z,0
2019-01-10T03:15:16.913Z,0
2019-01-10T03:16:17.026Z,0
2019-01-10T03:17:16.872Z,0
2019-01-10T03:18:16.856Z,0
2019-01-10T03:19:16.839Z,0
2019-01-10T03:20:16.829Z,0
2019-01-10T03:21:16.826Z,0
2019-01-10T03:22:16.790Z,0
2019-01-10T03:23:16.779Z,0
2019-01-10T03:24:16.756Z,0
2019-01-10T03:25:16.757Z,0
2019-01-10T03:26:16.729Z,0
2019-01-10T03:27:16.728Z,0
2019-01-10T03:28:16.698Z,0
2019-01-10T03:29:18.712Z,0
2019-01-10T03:30:16.695Z,0
2019-01-10T03:31:16.672Z,0
2019-01-10T03:32:16.445Z,0
2019-01-10T03:33:16.685Z,0
2019-01-10T03:34:16.599Z,0
2019-01-10T03:35:16.587Z,0
2019-01-10T03:36:16.568Z,0
2019-01-10T03:37:16.553Z,0
2019-01-10T03:38:16.542Z,0
2019-01-10T03:39:16.520Z,0
2019-01-10T03:40:16.548Z,0
2019-01-10T03:41:16.503Z,0
2019-01-10T03:42:16.488Z,0
2019-01-10T03:43:16.471Z,0
2019-01-10T03:44:16.440Z,0
2019-01-10T03:45:16.428Z,0
2019-01-10T03:46:16.414Z,0
2019-01-10T03:47:16.429Z,0
2019-01-10T03:48:16.381Z,0
2019-01-10T03:49:16.367Z,0
2019-01-10T03:50:16.361Z,0
2019-01-10T03:51:16.337Z,0
2019-01-10T03:52:16.330Z,0
2019-01-10T03:53:16.435Z,0
2019-01-10T03:54:16.282Z,0
2019-01-10T03:55:16.275Z,0
2019-01-10T03:56:15.773Z,0
2019-01-10T03:57:16.233Z,0
2019-01-10T03:58:16.216Z,0
2019-01-10T03:59:16.215Z,0
2019-01-10T04:00:16.286Z,0
2019-01-10T04:01:16.173Z,0
2019-01-10T04:02:16.157Z,0
2019-01-10T04:03:16.140Z,0
2019-01-10T04:04:16.125Z,0
2019-01-10T04:05:16.107Z,0
2019-01-10T04:06:16.102Z,0
2019-01-10T04:07:16.074Z,0
2019-01-10T04:08:16.058Z,0
2019-01-10T04:09:16.058Z,0
2019-01-10T04:10:16.031Z,0
2019-01-10T04:11:15.773Z,0
2019-01-10T04:12:16.000Z,0
2019-01-10T04:13:15.987Z,0
2019-01-10T04:14:15.962Z,0
2019-01-10T04:15:15.978Z,0
2019-01-10T04:16:15.940Z,0
2019-01-10T04:17:15.914Z,0
2019-01-10T04:18:16.045Z,0
2019-01-10T04:19:15.908Z,0
2019-01-10T04:20:15.927Z,0
2019-01-10T04:21:26.386Z,0
2019-01-10T04:22:15.946Z,0
2019-01-10T04:23:15.827Z,0
2019-01-10T04:24:15.799Z,0
2019-01-10T04:25:15.784Z,0
2019-01-10T04:26:15.780Z,0
2019-01-10T04:27:15.759Z,0
2019-01-10T04:28:15.770Z,0
2019-01-10T04:29:15.755Z,0
2019-01-10T04:30:15.805Z,0
2019-01-10T04:31:15.714Z,0
2019-01-10T04:32:15.685Z,0
2019-01-10T04:33:15.668Z,0
2019-01-10T04:34:15.679Z,0
2019-01-10T04:35:15.648Z,0
2019-01-10T04:36:15.614Z,0
2019-01-10T04:37:15.618Z,0
2019-01-10T04:38:15.588Z,0
2019-01-10T04:39:15.568Z,0
2019-01-10T04:40:15.561Z,0
2019-01-10T04:41:15.549Z,0
2019-01-10T04:42:15.524Z,0
2019-01-10T04:43:15.500Z,0
2019-01-10T04:44:16.719Z,0
2019-01-10T04:45:15.499Z,0
2019-01-10T04:46:15.488Z,0
2019-01-10T04:47:15.436Z,0
2019-01-10T04:48:15.440Z,0
2019-01-10T04:49:15.423Z,0
2019-01-10T04:50:15.391Z,0
2019-01-10T04:51:15.373Z,0
2019-01-10T04:52:16.445Z,0
2019-01-10T04:53:15.360Z,0
2019-01-10T04:54:15.337Z,0
2019-01-10T04:55:15.357Z,0
2019-01-10T04:56:15.294Z,0
2019-01-10T04:57:15.281Z,0
2019-01-10T04:58:15.095Z,0
2019-01-10T04:59:16.928Z,0
2019-01-10T05:00:15.235Z,0
2019-01-10T05:01:15.214Z,0
2019-01-10T05:02:25.303Z,0
2019-01-10T05:03:15.187Z,0
2019-01-10T05:04:15.169Z,0
2019-01-10T05:05:15.155Z,0
2019-01-10T05:06:15.149Z,0
2019-01-10T05:07:15.124Z,0
2019-01-10T05:08:15.113Z,0
2019-01-10T05:09:15.100Z,0
2019-01-10T05:10:15.080Z,0
2019-01-10T05:11:16.225Z,0
2019-01-10T05:12:15.039Z,0
2019-01-10T05:13:14.787Z,0
2019-01-10T05:14:23.373Z,0
2019-01-10T05:15:15.002Z,0
2019-01-10T05:16:14.974Z,0
2019-01-10T05:17:14.959Z,0
2019-01-10T05:18:17.507Z,0
2019-01-10T05:19:15.073Z,0
2019-01-10T05:20:14.919Z,0
2019-01-10T05:21:14.906Z,0
2019-01-10T05:22:15.179Z,0
2019-01-10T05:23:14.859Z,0
2019-01-10T05:24:14.849Z,0
2019-01-10T05:25:14.828Z,0
2019-01-10T05:26:14.833Z,0
2019-01-10T05:27:14.823Z,0
2019-01-10T05:28:14.792Z,0
2019-01-10T05:29:14.764Z,0
2019-01-10T05:30:14.755Z,0
2019-01-10T05:31:14.841Z,0
2019-01-10T05:32:14.734Z,0
2019-01-10T05:33:14.707Z,0
2019-01-10T05:34:14.693Z,0
2019-01-10T05:35:14.688Z,0
2019-01-10T05:36:14.750Z,0
2019-01-10T05:37:15.534Z,0
2019-01-10T05:38:14.631Z,0
2019-01-10T05:39:14.613Z,0
2019-01-10T05:40:14.590Z,0
2019-01-10T05:41:14.591Z,0
2019-01-10T05:42:16.064Z,0
2019-01-10T05:43:14.607Z,0
2019-01-10T05:44:14.537Z,0
2019-01-10T05:45:14.514Z,0
2019-01-10T05:46:14.502Z,0
2019-01-10T05:47:14.488Z,0
2019-01-10T05:48:14.477Z,0
2019-01-10T05:49:14.455Z,0
2019-01-10T05:50:14.453Z,0
2019-01-10T05:51:14.437Z,0
2019-01-10T05:52:14.423Z,0
2019-01-10T05:53:14.394Z,0
2019-01-10T05:54:14.371Z,0
2019-01-10T05:55:14.363Z,0
2019-01-10T05:56:22.730Z,0
2019-01-10T05:57:14.319Z,0
2019-01-10T05:58:14.309Z,0
2019-01-10T05:59:14.294Z,0
2019-01-10T06:00:14.037Z,0
2019-01-10T06:01:14.268Z,0
2019-01-10T06:02:14.258Z,0
2019-01-10T06:03:14.229Z,0
2019-01-10T06:04:14.224Z,0
2019-01-10T06:05:15.422Z,0
2019-01-10T06:06:14.184Z,0
2019-01-10T06:07:14.164Z,0
2019-01-10T06:08:14.163Z,0
2019-01-10T06:09:14.141Z,0
2019-01-10T06:10:14.135Z,0
2019-01-10T06:11:14.111Z,0
2019-01-10T06:12:14.090Z,0
2019-01-10T06:13:14.071Z,0
2019-01-10T06:14:14.050Z,0
2019-01-10T06:15:14.045Z,0
2019-01-10T06:16:14.025Z,0
2019-01-10T06:17:14.034Z,0
2019-01-10T06:18:13.995Z,0
2019-01-10T06:19:13.976Z,0
2019-01-10T06:20:13.960Z,0
2019-01-10T06:21:13.949Z,0
2019-01-10T06:22:13.928Z,0
2019-01-10T06:23:13.912Z,0
2019-01-10T06:24:13.912Z,0
2019-01-10T06:25:13.917Z,0
2019-01-10T06:26:13.861Z,0
2019-01-10T06:27:13.870Z,0
2019-01-10T06:28:13.837Z,0
2019-01-10T06:29:13.827Z,0
2019-01-10T06:30:13.807Z,0
2019-01-10T06:31:13.784Z,0
2019-01-10T06:32:13.779Z,0
2019-01-10T06:33:13.747Z,0
2019-01-10T06:34:15.960Z,0
2019-01-10T06:35:13.725Z,0
2019-01-10T06:36:13.707Z,0
2019-01-10T06:37:13.682Z,0
2019-01-10T06:38:13.679Z,0
2019-01-10T06:39:13.658Z,0
2019-01-10T06:40:13.641Z,0
2019-01-10T06:41:13.626Z,0
2019-01-10T06:42:13.625Z,0
2019-01-10T06:43:13.588Z,0
2019-01-10T06:44:13.573Z,0
2019-01-10T06:45:13.560Z,0
2019-01-10T06:46:13.539Z,0
2019-01-10T06:47:13.531Z,0
2019-01-10T06:48:13.505Z,0
2019-01-10T06:49:13.493Z,0
2019-01-10T06:50:13.476Z,0
2019-01-10T06:51:13.477Z,0
2019-01-10T06:52:13.440Z,0
2019-01-10T06:53:13.449Z,0
2019-01-10T06:54:13.418Z,0
2019-01-10T06:55:13.396Z,0
2019-01-10T06:56:13.137Z,0
2019-01-10T06:57:13.369Z,0
2019-01-10T06:58:13.343Z,0
2019-01-10T06:59:13.327Z,0
2019-01-10T07:00:13.311Z,0
2019-01-10T07:01:13.306Z,0
2019-01-10T07:02:14.183Z,0
2019-01-10T07:03:13.268Z,0
2019-01-10T07:04:13.257Z,0
2019-01-10T07:05:13.634Z,0
2019-01-10T07:06:13.235Z,0
2019-01-10T07:07:13.207Z,5
2019-01-10T07:08:13.186Z,5
2019-01-10T07:09:13.174Z,5
2019-01-10T07:10:13.151Z,5
2019-01-10T07:11:13.153Z,5
2019-01-10T07:12:14.976Z,5
2019-01-10T07:13:13.114Z,5
2019-01-10T07:14:13.093Z,5
2019-01-10T07:15:13.072Z,5
2019-01-10T07:16:13.072Z,5
2019-01-10T07:17:12.806Z,5
2019-01-10T07:18:13.039Z,5
2019-01-10T07:19:13.007Z,5
2019-01-10T07:20:13.069Z,5
2019-01-10T07:21:12.978Z,10
2019-01-10T07:22:13.225Z,10
2019-01-10T07:23:12.958Z,10
2019-01-10T07:24:12.970Z,10
2019-01-10T07:25:12.914Z,15
2019-01-10T07:26:12.897Z,15
2019-01-10T07:27:12.883Z,15
2019-01-10T07:28:12.866Z,15
2019-01-10T07:29:12.850Z,15
2019-01-10T07:30:12.831Z,15
2019-01-10T07:31:12.818Z,15
2019-01-10T07:32:12.803Z,15
2019-01-10T07:33:12.800Z,15
2019-01-10T07:34:12.865Z,15
2019-01-10T07:35:12.757Z,15
2019-01-10T07:36:12.733Z,15
2019-01-10T07:37:22.116Z,15
2019-01-10T07:38:12.709Z,20
2019-01-10T07:39:12.688Z,20
2019-01-10T07:40:12.674Z,25
2019-01-10T07:41:12.681Z,25
2019-01-10T07:42:12.638Z,30
2019-01-10T07:43:12.649Z,30
2019-01-10T07:44:14.835Z,35
2019-01-10T07:45:12.472Z,35
2019-01-10T07:46:12.582Z,35
2019-01-10T07:47:13.037Z,30
2019-01-10T07:48:12.549Z,35
2019-01-10T07:49:12.527Z,35
2019-01-10T07:50:12.522Z,35
2019-01-10T07:51:12.503Z,40
2019-01-10T07:52:12.475Z,40
2019-01-10T07:53:12.465Z,45
2019-01-10T07:54:12.450Z,50
2019-01-10T07:55:12.441Z,55
2019-01-10T07:56:12.414Z,55
2019-01-10T07:57:12.420Z,50
2019-01-10T07:58:12.386Z,45
2019-01-10T07:59:12.367Z,45
2019-01-10T08:00:12.349Z,50
2019-01-10T08:01:12.421Z,50
2019-01-10T08:02:12.317Z,45
2019-01-10T08:03:13.645Z,50
2019-01-10T08:04:12.295Z,50
2019-01-10T08:05:12.285Z,55
2019-01-10T08:06:14.112Z,60
2019-01-10T08:07:12.255Z,60
2019-01-10T08:08:14.260Z,55
2019-01-10T08:09:12.202Z,55
2019-01-10T08:10:12.190Z,55
2019-01-10T08:11:12.172Z,45
2019-01-10T08:12:12.161Z,40
2019-01-10T08:13:12.149Z,40
2019-01-10T08:14:12.131Z,40
2019-01-10T08:15:21.182Z,40
2019-01-10T08:16:12.095Z,45
2019-01-10T08:17:20.619Z,40
2019-01-10T08:18:12.186Z,50
2019-01-10T08:19:12.051Z,55
2019-01-10T08:20:12.284Z,55
2019-01-10T08:21:12.021Z,60
2019-01-10T08:22:12.093Z,55
2019-01-10T08:23:11.990Z,60
2019-01-10T08:24:11.971Z,60
2019-01-10T08:25:11.965Z,60
2019-01-10T08:26:12.032Z,65
2019-01-10T08:27:11.982Z,65
2019-01-10T08:28:11.917Z,65
2019-01-10T08:29:11.893Z,55
2019-01-10T08:30:11.881Z,60
2019-01-10T08:31:11.865Z,60
2019-01-10T08:32:13.621Z,65
2019-01-10T08:33:11.828Z,65
2019-01-10T08:34:11.822Z,65
2019-01-10T08:35:11.806Z,55
2019-01-10T08:36:11.781Z,45
2019-01-10T08:37:12.249Z,50
2019-01-10T08:38:11.755Z,55
2019-01-10T08:39:11.491Z,60
2019-01-10T08:40:11.479Z,60
2019-01-10T08:41:13.816Z,60
2019-01-10T08:42:11.689Z,60
2019-01-10T08:43:14.128Z,65
2019-01-10T08:44:11.664Z,70
2019-01-10T08:45:21.067Z,70
2019-01-10T08:46:11.629Z,65
2019-01-10T08:47:11.617Z,65
2019-01-10T08:48:11.600Z,60
2019-01-10T08:49:11.643Z,65
2019-01-10T08:50:11.572Z,60
2019-01-10T08:51:11.560Z,65
2019-01-10T08:52:11.536Z,70
2019-01-10T08:53:11.520Z,70
2019-01-10T08:54:11.511Z,65
2019-01-10T08:55:11.592Z,75
2019-01-10T08:56:11.487Z,70
2019-01-10T08:57:11.461Z,75
2019-01-10T08:58:11.451Z,80
2019-01-10T08:59:11.439Z,85
2019-01-10T09:00:11.924Z,90
2019-01-10T09:01:11.399Z,90
2019-01-10T09:02:11.506Z,95
2019-01-10T09:03:11.368Z,95
2019-01-10T09:04:11.355Z,110
2019-01-10T09:05:12.313Z,115
2019-01-10T09:06:17.714Z,105
2019-01-10T09:07:11.065Z,105
2019-01-10T09:08:11.299Z,115
2019-01-10T09:09:11.372Z,120
2019-01-10T09:10:11.275Z,125
2019-01-10T09:11:11.393Z,120
2019-01-10T09:12:11.232Z,125
2019-01-10T09:13:11.291Z,130
2019-01-10T09:14:11.893Z,135
2019-01-10T09:15:11.194Z,135
2019-01-10T09:16:11.515Z,150
2019-01-10T09:17:11.159Z,160
2019-01-10T09:18:11.143Z,145
2019-01-10T09:19:11.124Z,135
2019-01-10T09:20:11.129Z,130
2019-01-10T09:21:13.988Z,125
2019-01-10T09:22:11.083Z,125
2019-01-10T09:23:11.067Z,125
2019-01-10T09:24:10.808Z,135
2019-01-10T09:25:11.040Z,145
2019-01-10T09:26:11.034Z,145
2019-01-10T09:27:11.103Z,140
2019-01-10T09:28:10.995Z,135
2019-01-10T09:29:10.974Z,130
2019-01-10T09:30:10.966Z,125
2019-01-10T09:31:10.957Z,120
2019-01-10T09:32:10.930Z,120
2019-01-10T09:33:10.918Z,115
2019-01-10T09:34:10.903Z,120
2019-01-10T09:35:10.886Z,120
2019-01-10T09:36:10.875Z,130
2019-01-10T09:37:11.116Z,135
2019-01-10T09:38:10.842Z,120
2019-01-10T09:39:10.832Z,120
2019-01-10T09:40:10.820Z,125
2019-01-10T09:41:10.798Z,125
2019-01-10T09:42:10.788Z,130
2019-01-10T09:43:10.782Z,125
2019-01-10T09:44:10.630Z,125
2019-01-10T09:45:10.742Z,115
2019-01-10T09:46:10.725Z,110
2019-01-10T09:47:10.711Z,105
2019-01-10T09:48:10.700Z,110
2019-01-10T09:49:10.688Z,115
2019-01-10T09:50:10.668Z,120
2019-01-10T09:51:10.651Z,115
2019-01-10T09:52:10.636Z,115
2019-01-10T09:53:10.625Z,115
2019-01-10T09:54:10.605Z,110
2019-01-10T09:55:10.590Z,105
2019-01-10T09:56:10.575Z,100
2019-01-10T09:57:10.616Z,100
2019-01-10T09:58:10.550Z,105
2019-01-10T09:59:10.531Z,100
2019-01-10T10:00:10.279Z,100
2019-01-10T10:01:10.500Z,135
2019-01-10T10:02:10.491Z,140
2019-01-10T10:03:10.472Z,155
2019-01-10T10:04:10.461Z,165
2019-01-10T10:05:10.446Z,140
2019-01-10T10:06:17.332Z,145
2019-01-10T10:07:10.419Z,140
2019-01-10T10:08:10.399Z,145
2019-01-10T10:09:10.456Z,155
2019-01-10T10:10:11.445Z,170
2019-01-10T10:11:10.362Z,185
2019-01-10T10:12:10.344Z,210
2019-01-10T10:13:10.334Z,225
2019-01-10T10:14:10.333Z,240
2019-01-10T10:15:11.864Z,245
2019-01-10T10:16:10.280Z,225
2019-01-10T10:17:10.271Z,230
2019-01-10T10:18:10.251Z,240
2019-01-10T10:19:10.245Z,205
2019-01-10T10:20:10.221Z,195
2019-01-10T10:21:10.279Z,190
2019-01-10T10:22:10.310Z,205
2019-01-10T10:23:09.937Z,225
2019-01-10T10:24:10.173Z,220
2019-01-10T10:25:10.152Z,215
2019-01-10T10:26:10.160Z,240
2019-01-10T10:27:10.127Z,235
2019-01-10T10:28:10.113Z,220
2019-01-10T10:29:10.090Z,220
2019-01-10T10:30:10.086Z,205
2019-01-10T10:31:10.062Z,210
2019-01-10T10:32:10.146Z,220
2019-01-10T10:33:10.039Z,240
2019-01-10T10:34:10.038Z,270
2019-01-10T10:35:10.015Z,260
2019-01-10T10:36:09.772Z,195
2019-01-10T10:37:09.983Z,175
2019-01-10T10:38:09.969Z,155
2019-01-10T10:39:09.958Z,155
2019-01-10T10:40:09.938Z,160
2019-01-10T10:41:09.924Z,165
2019-01-10T10:42:09.921Z,175
2019-01-10T10:43:09.895Z,180
2019-01-10T10:44:09.888Z,185
2019-01-10T10:45:09.870Z,210
2019-01-10T10:46:11.170Z,190
2019-01-10T10:47:11.840Z,200
2019-01-10T10:48:09.839Z,195
2019-01-10T10:49:09.815Z,190
2019-01-10T10:50:09.798Z,180
2019-01-10T10:51:09.800Z,185
2019-01-10T10:52:09.771Z,200
2019-01-10T10:53:09.769Z,195
2019-01-10T10:54:09.507Z,190
2019-01-10T10:55:09.738Z,185
2019-01-10T10:56:09.716Z,175
2019-01-10T10:57:09.705Z,180
2019-01-10T10:58:09.785Z,190
2019-01-10T10:59:09.683Z,190
2019-01-10T11:00:09.763Z,205
2019-01-10T11:01:09.645Z,200
2019-01-10T11:02:09.632Z,205
2019-01-10T11:03:09.620Z,200
2019-01-10T11:04:09.617Z,205
2019-01-10T11:05:09.695Z,205
2019-01-10T11:06:09.588Z,185
2019-01-10T11:07:09.562Z,190
2019-01-10T11:08:09.549Z,185
2019-01-10T11:09:18.400Z,175
2019-01-10T11:10:09.371Z,185
2019-01-10T11:11:09.504Z,210
2019-01-10T11:12:09.488Z,205
2019-01-10T11:13:09.478Z,185
2019-01-10T11:14:09.472Z,170
2019-01-10T11:15:09.453Z,165
2019-01-10T11:16:17.435Z,160
2019-01-10T11:17:09.424Z,140
2019-01-10T11:18:09.409Z,140
2019-01-10T11:19:09.391Z,140
2019-01-10T11:20:09.384Z,145
2019-01-10T11:21:09.364Z,145
2019-01-10T11:22:09.351Z,140
2019-01-10T11:23:17.904Z,145
2019-01-10T11:24:09.328Z,165
2019-01-10T11:25:09.306Z,155
2019-01-10T11:26:09.295Z,125
2019-01-10T11:27:09.035Z,125
2019-01-10T11:28:09.275Z,130
2019-01-10T11:29:09.261Z,145
2019-01-10T11:30:09.245Z,150
2019-01-10T11:31:09.220Z,160
2019-01-10T11:32:17.833Z,160
2019-01-10T11:33:09.200Z,165
2019-01-10T11:34:09.284Z,165
2019-01-10T11:35:09.192Z,165
2019-01-10T11:36:09.158Z,190
2019-01-10T11:37:09.143Z,195
2019-01-10T11:38:09.136Z,180
2019-01-10T11:39:09.109Z,170
2019-01-10T11:40:09.093Z,180
2019-01-10T11:41:09.081Z,190
2019-01-10T11:42:09.073Z,175
2019-01-10T11:43:09.047Z,160
2019-01-10T11:44:09.040Z,150
2019-01-10T11:45:08.784Z,145
2019-01-10T11:46:09.007Z,155
2019-01-10T11:47:08.993Z,160
2019-01-10T11:48:08.985Z,160
2019-01-10T11:49:08.971Z,160
2019-01-10T11:50:08.955Z,165
2019-01-10T11:51:08.934Z,170
2019-01-10T11:52:08.923Z,175
2019-01-10T11:53:08.906Z,175
2019-01-10T11:54:08.891Z,205
2019-01-10T11:55:08.879Z,240
2019-01-10T11:56:08.866Z,290
2019-01-10T11:57:08.851Z,290
2019-01-10T11:58:08.838Z,250
2019-01-10T11:59:08.823Z,210
2019-01-10T12:00:10.397Z,180
2019-01-10T12:01:08.890Z,155
2019-01-10T12:02:08.882Z,135
2019-01-10T12:03:08.779Z,130
2019-01-10T12:04:08.758Z,125
2019-01-10T12:05:08.745Z,130
2019-01-10T12:06:08.728Z,125
2019-01-10T12:07:08.712Z,120
2019-01-10T12:08:08.703Z,95
2019-01-10T12:09:08.684Z,80
2019-01-10T12:10:08.678Z,80
2019-01-10T12:11:08.657Z,80
2019-01-10T12:12:08.652Z,85
2019-01-10T12:13:08.629Z,95
2019-01-10T12:14:08.614Z,105
2019-01-10T12:15:08.604Z,105
2019-01-10T12:16:08.588Z,115
2019-01-10T12:17:08.572Z,120
2019-01-10T12:18:08.570Z,120
2019-01-10T12:19:08.835Z,120
2019-01-10T12:20:08.529Z,120
2019-01-10T12:21:08.516Z,120
2019-01-10T12:22:08.502Z,130
2019-01-10T12:23:08.498Z,145
2019-01-10T12:24:08.473Z,145
2019-01-10T12:25:08.464Z,160
2019-01-10T12:26:08.448Z,175
2019-01-10T12:27:08.427Z,200
2019-01-10T12:28:08.416Z,225
2019-01-10T12:29:08.401Z,235
2019-01-10T12:30:08.381Z,220
2019-01-10T12:31:08.370Z,170
2019-01-10T12:32:08.353Z,140
2019-01-10T12:33:08.346Z,140
2019-01-10T12:34:08.328Z,155
2019-01-10T12:35:08.325Z,170
2019-01-10T12:36:08.420Z,160
2019-01-10T12:37:10.019Z,160
2019-01-10T12:38:08.332Z,160
2019-01-10T12:39:10.588Z,140
2019-01-10T12:40:08.456Z,120
2019-01-10T12:41:08.227Z,120
2019-01-10T12:42:08.214Z,120
2019-01-10T12:43:08.200Z,115
2019-01-10T12:44:08.868Z,115
2019-01-10T12:45:08.170Z,115
2019-01-10T12:46:08.509Z,115
2019-01-10T12:47:08.137Z,120
2019-01-10T12:48:08.805Z,120
2019-01-10T12:49:08.108Z,120
2019-01-10T12:50:08.098Z,120
2019-01-10T12:51:08.081Z,120
2019-01-10T12:52:08.067Z,125
2019-01-10T12:53:08.058Z,135
2019-01-10T12:54:08.334Z,150
2019-01-10T12:55:08.031Z,185
2019-01-10T12:56:08.090Z,180
2019-01-10T12:57:07.991Z,185
2019-01-10T12:58:07.979Z,200
2019-01-10T12:59:07.963Z,145
2019-01-10T13:00:07.948Z,120
2019-01-10T13:01:07.941Z,110
2019-01-10T13:02:09.443Z,100
2019-01-10T13:03:07.905Z,100
2019-01-10T13:04:07.916Z,100
2019-01-10T13:05:07.874Z,95
2019-01-10T13:06:07.860Z,90
2019-01-10T13:07:07.844Z,90
2019-01-10T13:08:13.107Z,90
2019-01-10T13:09:07.815Z,95
2019-01-10T13:10:08.046Z,95
2019-01-10T13:11:07.787Z,95
2019-01-10T13:12:07.772Z,100
2019-01-10T13:13:07.760Z,105
2019-01-10T13:14:12.448Z,105
2019-01-10T13:15:07.725Z,115
2019-01-10T13:16:07.715Z,120
2019-01-10T13:17:07.705Z,115
2019-01-10T13:18:07.681Z,115
2019-01-10T13:19:07.688Z,120
2019-01-10T13:20:07.660Z,120
2019-01-10T13:21:09.660Z,110
2019-01-10T13:22:07.624Z,105
2019-01-10T13:23:07.609Z,105
2019-01-10T13:24:07.647Z,105
2019-01-10T13:25:07.580Z,105
2019-01-10T13:26:09.257Z,110
2019-01-10T13:27:07.548Z,115
2019-01-10T13:28:07.591Z,110
2019-01-10T13:29:07.530Z,105
2019-01-10T13:30:07.271Z,105
2019-01-10T13:31:07.501Z,105
2019-01-10T13:32:07.495Z,105
2019-01-10T13:33:07.460Z,105
2019-01-10T13:34:07.448Z,105
2019-01-10T13:35:07.439Z,100
2019-01-10T13:36:07.418Z,100
2019-01-10T13:37:07.409Z,100
2019-01-10T13:38:07.391Z,100
2019-01-10T13:39:07.381Z,100
2019-01-10T13:40:07.365Z,95
2019-01-10T13:41:07.352Z,95
2019-01-10T13:42:07.091Z,95
2019-01-10T13:43:07.323Z,95
2019-01-10T13:44:07.300Z,90
2019-01-10T13:45:07.352Z,90
2019-01-10T13:46:07.273Z,90
2019-01-10T13:47:07.263Z,90
2019-01-10T13:48:07.246Z,85
2019-01-10T13:49:07.222Z,80
2019-01-10T13:50:13.651Z,70
2019-01-10T13:51:07.522Z,65
2019-01-10T13:52:06.938Z,60
2019-01-10T13:53:07.164Z,60
2019-01-10T13:54:07.149Z,60
2019-01-10T13:55:07.319Z,60
2019-01-10T13:56:07.813Z,65
2019-01-10T13:57:07.110Z,65
2019-01-10T13:58:07.086Z,65
2019-01-10T13:59:07.081Z,65
2019-01-10T14:00:07.069Z,65
2019-01-10T14:02:07.048Z,70
2019-01-10T14:03:11.486Z,65
2019-01-10T14:04:06.998Z,70
2019-01-10T14:05:12.983Z,75
2019-01-10T14:06:06.974Z,75
2019-01-10T14:07:06.956Z,70
2019-01-10T14:08:06.946Z,70
2019-01-10T14:09:06.930Z,65
2019-01-10T14:10:08.194Z,65
2019-01-10T14:11:06.657Z,60
2019-01-10T14:12:06.879Z,55
2019-01-10T14:13:06.862Z,55
2019-01-10T14:14:06.613Z,50
2019-01-10T14:15:06.846Z,50
2019-01-10T14:16:06.823Z,50
2019-01-10T14:17:11.330Z,45
2019-01-10T14:18:06.792Z,40
2019-01-10T14:19:06.775Z,40
2019-01-10T14:20:06.760Z,35
2019-01-10T14:21:06.743Z,35
2019-01-10T14:22:06.730Z,40